createdAt,value
2018-03-03T00:01:06.356Z,67.76
2018-03-03T00:03:36.505Z,67.69
2018-03-03T00:06:06.481Z,67.58
2018-03-03T00:08:35.919Z,67.80
2018-03-03T00:11:05.799Z,68.05
2018-03-03T00:13:35.395Z,68.05
2018-03-03T00:16:05.336Z,68.17
2018-03-03T00:18:34.399Z,68.05
2018-03-03T00:21:03.650Z,68.21
2018-03-03T00:23:33.543Z,68.22
2018-03-03T00:26:03.183Z,68.36
2018-03-03T00:28:32.674Z,68.24
2018-03-03T00:31:02.322Z,68.10
2018-03-03T00:33:32.203Z,68.40
2018-03-03T00:36:01.299Z,68.12
2018-03-03T00:38:31.216Z,67.96
2018-03-03T00:41:00.634Z,68.34
2018-03-03T00:43:30.552Z,68.29
2018-03-03T00:46:00.936Z,68.39
2018-03-03T00:48:30.003Z,68.67
2018-03-03T00:51:00.297Z,68.55
2018-03-03T00:53:30.046Z,68.81
2018-03-03T00:55:59.188Z,68.65
2018-03-03T00:58:29.302Z,68.64
2018-03-03T01:00:59.134Z,68.73
2018-03-03T01:03:28.296Z,68.56
2018-03-03T01:05:57.415Z,68.86
2018-03-03T01:08:27.535Z,68.60
2018-03-03T01:10:56.634Z,69.10
2018-03-03T01:13:26.212Z,69.04
2018-03-03T01:15:55.334Z,68.98
2018-03-03T01:18:26.618Z,68.94
2018-03-03T01:20:55.923Z,68.88
2018-03-03T01:23:25.388Z,68.87
2018-03-03T01:25:54.464Z,69.01
2018-03-03T01:28:23.896Z,69.01
2018-03-03T01:30:53.894Z,69.17
2018-03-03T01:33:24.795Z,69.23
2018-03-03T01:35:54.091Z,69.35
2018-03-03T01:38:24.100Z,69.18
2018-03-03T01:40:53.352Z,69.26
2018-03-03T01:43:22.650Z,69.16
2018-03-03T01:45:51.780Z,69.14
2018-03-03T01:48:24.080Z,68.88
2018-03-03T01:50:54.864Z,68.75
2018-03-03T01:53:24.020Z,68.39
2018-03-03T01:55:53.605Z,68.19
2018-03-03T01:58:23.407Z,67.98
2018-03-03T02:00:53.199Z,67.77
2018-03-03T02:03:22.322Z,67.71
2018-03-03T02:05:51.682Z,67.77
2018-03-03T02:08:21.578Z,67.65
2018-03-03T02:10:50.734Z,67.49
2018-03-03T02:13:20.464Z,67.50
2018-03-03T02:15:49.623Z,67.52
2018-03-03T02:18:19.347Z,67.55
2018-03-03T02:20:48.591Z,67.68
2018-03-03T02:23:17.982Z,67.87
2018-03-03T02:25:47.167Z,67.85
2018-03-03T02:28:17.275Z,67.74
2018-03-03T02:30:46.496Z,67.62
2018-03-03T02:33:16.362Z,67.08
2018-03-03T02:35:46.121Z,66.67
2018-03-03T02:38:16.612Z,66.55
2018-03-03T02:40:45.765Z,66.56
2018-03-03T02:43:16.577Z,66.63
2018-03-03T02:45:46.336Z,66.45
2018-03-03T02:48:16.974Z,65.67
2018-03-03T02:50:46.122Z,65.43
2018-03-03T02:53:15.197Z,65.01
2018-03-03T02:55:44.769Z,64.76
2018-03-03T02:58:14.025Z,64.63
2018-03-03T03:00:43.378Z,64.69
2018-03-03T03:03:12.540Z,64.59
2018-03-03T03:05:42.648Z,64.58
2018-03-03T03:08:12.914Z,64.44
2018-03-03T03:10:42.091Z,64.37
2018-03-03T03:13:11.155Z,64.23
2018-03-03T03:15:40.724Z,64.34
2018-03-03T03:18:11.890Z,64.51
2018-03-03T03:20:41.031Z,64.25
2018-03-03T03:23:10.274Z,64.07
2018-03-03T03:25:39.433Z,64.05
2018-03-03T03:28:08.590Z,64.13
2018-03-03T03:30:38.491Z,64.47
2018-03-03T03:33:08.087Z,64.80
2018-03-03T03:35:37.287Z,65.04
2018-03-03T03:38:06.388Z,65.25
2018-03-03T03:40:36.695Z,65.18
2018-03-03T03:43:05.839Z,65.37
2018-03-03T03:45:35.356Z,65.65
2018-03-03T03:48:04.429Z,65.92
2018-03-03T03:50:34.131Z,65.90
2018-03-03T03:53:03.311Z,65.95
2018-03-03T03:55:33.951Z,66.17
2018-03-03T03:58:03.570Z,66.14
2018-03-03T04:00:32.735Z,66.32
2018-03-03T04:03:02.476Z,66.48
2018-03-03T04:05:32.133Z,66.48
2018-03-03T04:08:01.294Z,66.42
2018-03-03T04:10:32.613Z,66.47
2018-03-03T04:13:02.395Z,66.58
2018-03-03T04:15:31.901Z,66.59
2018-03-03T04:18:01.022Z,66.57
2018-03-03T04:20:30.094Z,66.57
2018-03-03T04:22:59.618Z,66.63
2018-03-03T04:25:28.734Z,66.70
2018-03-03T04:27:58.756Z,66.68
2018-03-03T04:30:30.534Z,66.69
2018-03-03T04:32:59.635Z,66.77
2018-03-03T04:35:30.453Z,66.85
2018-03-03T04:37:59.543Z,67.03
2018-03-03T04:40:29.988Z,66.96
2018-03-03T04:42:59.159Z,67.09
2018-03-03T04:45:28.563Z,67.00
2018-03-03T04:47:58.867Z,67.31
2018-03-03T04:50:28.795Z,67.20
2018-03-03T04:52:57.938Z,67.24
2018-03-03T04:55:27.011Z,67.35
2018-03-03T04:57:57.498Z,67.61
2018-03-03T05:00:32.143Z,67.87
2018-03-03T05:03:06.973Z,68.03
2018-03-03T05:05:42.967Z,68.26
2018-03-03T05:08:17.355Z,68.38
2018-03-03T05:10:46.453Z,68.70
2018-03-03T05:13:17.080Z,68.84
2018-03-03T05:18:57.342Z,68.76
2018-03-03T05:21:32.214Z,68.71
2018-03-03T05:24:19.186Z,68.83
2018-03-03T05:26:53.914Z,68.87
2018-03-03T05:29:28.870Z,68.93
2018-03-03T05:32:05.051Z,69.07
2018-03-03T05:34:39.929Z,69.08
2018-03-03T05:40:17.680Z,68.85
2018-03-03T05:42:52.972Z,68.74
2018-03-03T05:45:28.066Z,68.78
2018-03-03T05:48:03.172Z,68.72
2018-03-03T05:50:36.697Z,68.44
2018-03-03T05:53:09.999Z,68.45
2018-03-03T05:55:56.370Z,68.47
2018-03-03T05:58:31.766Z,68.58
2018-03-03T06:01:04.258Z,68.47
2018-03-03T06:03:45.804Z,68.64
2018-03-03T06:06:21.375Z,68.53
2018-03-03T06:09:07.118Z,68.77
2018-03-03T06:11:36.893Z,68.93
2018-03-03T06:14:06.009Z,69.01
2018-03-03T06:16:35.592Z,68.72
2018-03-03T06:19:05.468Z,68.98
2018-03-03T06:21:35.171Z,68.95
2018-03-03T06:24:04.463Z,69.09
2018-03-03T06:26:33.565Z,69.04
2018-03-03T06:29:02.635Z,69.07
2018-03-03T06:31:33.019Z,69.07
2018-03-03T06:34:04.339Z,69.09
2018-03-03T06:36:34.230Z,69.26
2018-03-03T06:39:04.062Z,69.92
2018-03-03T06:41:33.519Z,69.34
2018-03-03T06:44:03.648Z,69.41
2018-03-03T06:46:33.618Z,69.24
2018-03-03T06:49:03.236Z,69.30
2018-03-03T06:51:33.499Z,69.51
2018-03-03T06:54:03.368Z,69.31
2018-03-03T06:56:33.564Z,69.10
2018-03-03T06:59:02.645Z,69.27
2018-03-03T07:01:32.270Z,69.50
2018-03-03T07:04:01.379Z,69.32
2018-03-03T07:06:30.919Z,69.27
2018-03-03T07:09:00.090Z,68.78
2018-03-03T07:11:29.731Z,68.37
2018-03-03T07:13:58.827Z,68.00
2018-03-03T07:16:28.277Z,67.99
2018-03-03T07:18:57.348Z,67.44
2018-03-03T07:21:26.708Z,67.16
2018-03-03T07:23:55.815Z,66.31
2018-03-03T07:26:24.895Z,66.21
2018-03-03T07:28:53.967Z,65.62
2018-03-03T07:31:23.358Z,65.33
2018-03-03T07:33:52.465Z,65.35
2018-03-03T07:36:22.399Z,65.48
2018-03-03T07:38:51.707Z,65.15
2018-03-03T07:41:20.865Z,65.44
2018-03-03T07:43:50.012Z,65.56
2018-03-03T07:46:19.617Z,66.02
2018-03-03T07:48:48.985Z,65.69
2018-03-03T07:51:18.213Z,65.72
2018-03-03T07:53:47.572Z,65.58
2018-03-03T07:56:16.885Z,65.37
2018-03-03T07:58:49.683Z,65.52
2018-03-03T08:01:18.863Z,65.20
2018-03-03T08:03:48.480Z,65.04
2018-03-03T08:06:17.586Z,64.61
2018-03-03T08:08:46.690Z,64.05
2018-03-03T08:11:16.017Z,63.90
2018-03-03T08:13:45.207Z,63.22
2018-03-03T08:16:14.287Z,62.93
2018-03-03T08:18:43.360Z,62.88
2018-03-03T08:21:12.524Z,62.65
2018-03-03T08:23:42.367Z,62.59
2018-03-03T08:26:11.442Z,62.83
2018-03-03T08:28:40.521Z,61.91
2018-03-03T08:31:09.930Z,61.83
2018-03-03T08:33:39.215Z,61.72
2018-03-03T08:36:08.794Z,61.53
2018-03-03T08:38:38.524Z,61.31
2018-03-03T08:41:09.241Z,61.17
2018-03-03T08:43:38.732Z,61.16
2018-03-03T08:46:07.806Z,61.49
2018-03-03T08:48:37.079Z,61.12
2018-03-03T08:51:06.203Z,61.02
2018-03-03T08:53:36.341Z,61.22
2018-03-03T08:56:06.247Z,61.80
2018-03-03T08:58:35.325Z,62.28
2018-03-03T09:01:04.587Z,63.66
2018-03-03T09:03:33.696Z,64.47
2018-03-03T09:06:02.818Z,64.85
2018-03-03T09:08:32.478Z,64.79
2018-03-03T09:11:01.615Z,64.32
2018-03-03T09:13:31.042Z,64.52
2018-03-03T09:16:00.501Z,64.38
2018-03-03T09:18:29.572Z,64.37
2018-03-03T09:20:58.865Z,64.41
2018-03-03T09:23:28.370Z,64.27
2018-03-03T09:25:57.915Z,63.82
2018-03-03T09:28:26.986Z,63.76
2018-03-03T09:30:56.059Z,63.89
2018-03-03T09:33:25.143Z,63.61
2018-03-03T09:35:54.287Z,63.66
2018-03-03T09:38:24.126Z,63.33
2018-03-03T09:40:53.439Z,63.78
2018-03-03T09:43:22.598Z,63.51
2018-03-03T09:45:53.429Z,62.83
2018-03-03T09:48:22.516Z,62.76
2018-03-03T09:50:51.603Z,63.13
2018-03-03T09:53:20.681Z,63.21
2018-03-03T09:55:50.282Z,63.24
2018-03-03T09:58:20.544Z,62.79
2018-03-03T10:00:50.245Z,62.10
2018-03-03T10:03:19.327Z,61.86
2018-03-03T10:05:48.395Z,61.17
2018-03-03T10:08:17.511Z,60.86
2018-03-03T10:10:46.662Z,60.84
2018-03-03T10:13:15.962Z,61.01
2018-03-03T10:15:45.044Z,61.71
2018-03-03T10:18:14.124Z,61.23
2018-03-03T10:20:43.600Z,61.25
2018-03-03T10:23:12.789Z,61.11
2018-03-03T10:25:42.268Z,61.36
2018-03-03T10:28:11.345Z,61.17
2018-03-03T10:30:40.753Z,60.90
2018-03-03T10:33:10.699Z,60.70
2018-03-03T10:35:40.735Z,60.93
2018-03-03T10:38:10.656Z,60.42
2018-03-03T10:40:40.124Z,60.81
2018-03-03T10:43:09.872Z,59.81
2018-03-03T10:45:40.371Z,59.61
2018-03-03T10:48:09.761Z,59.38
2018-03-03T10:50:39.474Z,58.88
2018-03-03T10:53:09.642Z,58.59
2018-03-03T10:55:39.549Z,58.48
2018-03-03T10:58:08.724Z,58.47
2018-03-03T11:00:37.958Z,57.73
2018-03-03T11:03:07.640Z,57.17
2018-03-03T11:05:37.150Z,58.11
2018-03-03T11:08:08.476Z,58.35
2018-03-03T11:10:37.722Z,58.28
2018-03-03T11:13:06.834Z,58.51
2018-03-03T11:15:36.535Z,58.63
2018-03-03T11:18:05.643Z,58.12
2018-03-03T11:20:34.895Z,58.30
2018-03-03T11:23:04.090Z,58.34
2018-03-03T11:25:33.407Z,58.29
2018-03-03T11:28:04.235Z,57.78
2018-03-03T11:30:33.652Z,57.78
2018-03-03T11:33:03.078Z,58.13
2018-03-03T11:35:32.798Z,58.38
2018-03-03T11:38:02.063Z,58.54
2018-03-03T11:40:33.134Z,57.83
2018-03-03T11:43:00.497Z,58.12
2018-03-03T11:45:29.577Z,58.14
2018-03-03T11:47:59.181Z,58.71
2018-03-03T11:50:29.141Z,58.73
2018-03-03T11:52:58.844Z,59.50
2018-03-03T11:55:28.002Z,59.68
2018-03-03T11:57:57.409Z,59.80
2018-03-03T12:00:26.600Z,60.38
2018-03-03T12:02:55.698Z,60.49
2018-03-03T12:05:24.857Z,60.52
2018-03-03T12:07:54.031Z,60.60
2018-03-03T12:10:23.440Z,60.66
2018-03-03T12:12:52.937Z,60.40
2018-03-03T12:15:22.278Z,60.06
2018-03-03T12:17:51.524Z,59.92
2018-03-03T12:20:20.676Z,59.50
2018-03-03T12:22:50.153Z,59.53
2018-03-03T12:25:19.665Z,58.58
2018-03-03T12:27:49.147Z,58.37
2018-03-03T12:30:18.231Z,58.51
2018-03-03T12:32:47.534Z,58.38
2018-03-03T12:35:16.973Z,59.04
2018-03-03T12:37:46.223Z,60.04
2018-03-03T12:40:15.351Z,60.99
2018-03-03T12:42:44.490Z,61.53
2018-03-03T12:45:14.219Z,61.83
2018-03-03T12:47:43.303Z,61.88
2018-03-03T12:50:12.450Z,62.01
2018-03-03T12:52:41.708Z,62.22
2018-03-03T12:55:10.788Z,62.29
2018-03-03T12:57:40.282Z,62.31
2018-03-03T13:00:09.358Z,62.00
2018-03-03T13:02:38.454Z,61.85
2018-03-03T13:05:08.450Z,61.36
2018-03-03T13:07:37.848Z,60.34
2018-03-03T13:10:06.927Z,58.71
2018-03-03T13:12:36.055Z,58.02
2018-03-03T13:15:05.487Z,58.10
2018-03-03T13:17:34.568Z,58.31
2018-03-03T13:20:03.647Z,58.62
2018-03-03T13:22:33.129Z,58.76
2018-03-03T13:25:02.226Z,58.75
2018-03-03T13:27:31.310Z,58.57
2018-03-03T13:30:00.670Z,57.08
2018-03-03T13:32:29.748Z,55.73
2018-03-03T13:34:58.919Z,54.18
2018-03-03T13:37:28.248Z,52.97
2018-03-03T13:39:57.702Z,52.41
2018-03-03T13:42:26.876Z,52.17
2018-03-03T13:44:55.942Z,51.64
2018-03-03T13:47:25.027Z,51.13
2018-03-03T13:49:54.860Z,50.53
2018-03-03T13:52:23.952Z,51.16
2018-03-03T13:54:53.115Z,50.74
2018-03-03T13:57:22.613Z,50.30
2018-03-03T13:59:51.963Z,50.32
2018-03-03T14:02:21.106Z,49.94
2018-03-03T14:04:50.474Z,49.95
2018-03-03T14:07:19.547Z,50.05
2018-03-03T14:13:02.233Z,49.46
2018-03-03T14:15:31.376Z,48.97
2018-03-03T14:18:00.525Z,49.39
2018-03-03T14:20:29.648Z,49.64
2018-03-03T14:22:58.725Z,49.99
2018-03-03T14:25:28.150Z,50.39
2018-03-03T14:27:57.230Z,50.72
2018-03-03T14:30:26.605Z,51.02
2018-03-03T14:32:56.007Z,51.18
2018-03-03T14:35:25.528Z,50.87
2018-03-03T14:37:55.806Z,51.09
2018-03-03T14:40:25.630Z,50.65
2018-03-03T14:42:54.760Z,50.74
2018-03-03T14:45:24.196Z,51.10
2018-03-03T14:47:53.473Z,51.32
2018-03-03T14:50:23.592Z,51.90
2018-03-03T14:52:52.756Z,52.01
2018-03-03T14:55:21.954Z,52.38
2018-03-03T14:57:51.671Z,52.60
2018-03-03T15:00:22.376Z,53.20
2018-03-03T15:02:52.110Z,53.35
2018-03-03T15:05:21.758Z,54.05
2018-03-03T15:07:51.417Z,55.11
2018-03-03T15:10:21.030Z,55.59
2018-03-03T15:12:52.882Z,56.21
2018-03-03T15:15:30.937Z,56.87
2018-03-03T15:18:00.340Z,56.87
2018-03-03T15:20:29.489Z,56.78
2018-03-03T15:22:59.207Z,56.74
2018-03-03T15:25:28.479Z,56.71
2018-03-03T15:28:05.678Z,56.76
2018-03-03T15:33:14.690Z,57.06
2018-03-03T15:35:46.976Z,57.06
2018-03-03T15:38:16.424Z,57.35
2018-03-03T15:40:46.125Z,57.70
2018-03-03T15:43:16.356Z,57.76
2018-03-03T15:45:45.775Z,57.95
2018-03-03T15:48:14.915Z,58.31
2018-03-03T15:50:44.234Z,58.60
2018-03-03T15:53:13.378Z,58.74
2018-03-03T15:55:42.553Z,58.71
2018-03-03T15:58:14.415Z,58.63
2018-03-03T16:00:44.024Z,58.71
2018-03-03T16:03:13.404Z,59.32
2018-03-03T16:05:42.482Z,59.50
2018-03-03T16:08:12.087Z,59.80
2018-03-03T16:10:41.899Z,59.83
2018-03-03T16:13:11.284Z,60.22
2018-03-03T16:15:40.805Z,60.37
2018-03-03T16:18:09.907Z,60.54
2018-03-03T16:20:40.923Z,60.78
2018-03-03T16:23:10.178Z,61.23
2018-03-03T16:25:39.588Z,61.28
2018-03-03T16:28:08.783Z,61.58
2018-03-03T16:30:37.880Z,61.53
2018-03-03T16:33:06.968Z,62.03
2018-03-03T16:35:36.362Z,62.18
2018-03-03T16:38:05.816Z,62.13
2018-03-03T16:40:34.913Z,62.20
2018-03-03T16:43:04.008Z,62.41
2018-03-03T16:45:33.517Z,62.41
2018-03-03T16:48:02.638Z,62.34
2018-03-03T16:50:31.817Z,62.33
2018-03-03T16:53:01.730Z,62.47
2018-03-03T16:55:30.824Z,62.65
2018-03-03T16:58:00.336Z,62.92
2018-03-03T17:00:29.611Z,63.21
2018-03-03T17:02:58.712Z,62.93
2018-03-03T17:05:27.904Z,63.43
2018-03-03T17:07:57.524Z,63.24
2018-03-03T17:10:26.643Z,63.64
2018-03-03T17:12:56.201Z,63.50
2018-03-03T17:15:25.303Z,63.61
2018-03-03T17:17:54.411Z,63.52
2018-03-03T17:20:23.509Z,63.80
2018-03-03T17:22:52.958Z,63.89
2018-03-03T17:25:22.068Z,63.89
2018-03-03T17:27:52.151Z,63.67
2018-03-03T17:30:21.334Z,63.96
2018-03-03T17:32:50.434Z,63.72
2018-03-03T17:35:19.942Z,63.54
2018-03-03T17:37:49.422Z,63.49
2018-03-03T17:40:18.884Z,63.12
2018-03-03T17:42:48.897Z,63.44
2018-03-03T17:45:18.016Z,62.99
2018-03-03T17:47:47.181Z,63.19
2018-03-03T17:50:16.270Z,62.81
2018-03-03T17:52:45.363Z,62.89
2018-03-03T17:55:14.496Z,62.79
2018-03-03T17:57:43.901Z,62.57
2018-03-03T18:00:13.106Z,62.88
2018-03-03T18:02:42.503Z,62.83
2018-03-03T18:05:11.692Z,62.83
2018-03-03T18:07:41.370Z,62.83
2018-03-03T18:10:10.459Z,62.88
2018-03-03T18:12:39.679Z,62.89
2018-03-03T18:15:09.114Z,62.83
2018-03-03T18:17:38.209Z,62.96
2018-03-03T18:20:07.398Z,62.90
2018-03-03T18:22:36.534Z,62.96
2018-03-03T18:25:05.763Z,62.80
2018-03-03T18:27:35.841Z,62.79
2018-03-03T18:31:23.303Z,62.98
2018-03-03T18:33:52.391Z,62.91
2018-03-03T18:36:21.490Z,62.95
2018-03-03T18:38:51.106Z,62.94
2018-03-03T18:41:20.194Z,62.83
2018-03-03T18:43:49.279Z,62.57
2018-03-03T18:46:18.367Z,62.66
2018-03-03T18:48:47.869Z,62.69
2018-03-03T18:51:17.661Z,62.81
2018-03-03T18:53:46.960Z,63.05
2018-03-03T18:56:16.904Z,63.07
2018-03-03T18:58:46.000Z,63.09
2018-03-03T19:01:15.448Z,63.22
2018-03-03T19:03:46.109Z,63.02
2018-03-03T19:06:15.253Z,63.06
2018-03-03T19:08:44.415Z,63.29
2018-03-03T19:11:13.625Z,63.48
2018-03-03T19:13:42.808Z,63.66
2018-03-03T19:16:12.019Z,63.64
2018-03-03T19:18:41.379Z,63.64
2018-03-03T19:21:10.475Z,63.76
2018-03-03T19:23:39.665Z,63.57
2018-03-03T19:26:08.757Z,63.69
2018-03-03T19:28:37.844Z,63.84
2018-03-03T19:31:07.819Z,63.93
2018-03-03T19:33:36.976Z,64.08
2018-03-03T19:36:06.060Z,64.08
2018-03-03T19:38:36.140Z,64.11
2018-03-03T19:41:05.270Z,64.25
2018-03-03T19:43:34.591Z,64.35
2018-03-03T19:46:04.252Z,64.41
2018-03-03T19:48:34.157Z,64.62
2018-03-03T19:51:04.010Z,64.53
2018-03-03T19:53:33.185Z,64.54
2018-03-03T19:56:03.023Z,64.78
2018-03-03T19:58:32.912Z,64.92
2018-03-03T20:01:02.155Z,64.84
2018-03-03T20:03:31.496Z,64.98
2018-03-03T20:06:00.606Z,65.07
2018-03-03T20:11:34.603Z,64.95
2018-03-03T20:14:03.703Z,65.07
2018-03-03T20:16:32.794Z,64.94
2018-03-03T20:19:02.790Z,64.80
2018-03-03T20:21:33.295Z,64.71
2018-03-03T20:24:04.056Z,64.83
2018-03-03T20:26:33.180Z,64.89
2018-03-03T20:29:03.256Z,65.01
2018-03-03T20:31:33.452Z,65.36
2018-03-03T20:34:03.911Z,65.56
2018-03-03T20:36:33.631Z,65.58
2018-03-03T20:39:03.856Z,65.46
2018-03-03T20:41:33.069Z,65.60
2018-03-03T20:44:02.158Z,65.54
2018-03-03T20:46:31.331Z,65.52
2018-03-03T20:49:01.759Z,65.70
2018-03-03T20:51:31.737Z,65.37
2018-03-03T20:54:00.907Z,65.49
2018-03-03T20:56:30.004Z,65.39
2018-03-03T20:58:59.199Z,65.34
2018-03-03T21:01:28.330Z,65.31
2018-03-03T21:03:57.585Z,65.57
2018-03-03T21:06:26.775Z,65.60
2018-03-03T21:08:55.886Z,65.80
2018-03-03T21:11:32.592Z,66.08
2018-03-03T21:14:01.788Z,65.93
2018-03-03T21:16:30.913Z,65.93
2018-03-03T21:19:00.385Z,66.14
2018-03-03T21:21:29.580Z,66.03
2018-03-03T21:23:59.112Z,65.87
2018-03-03T21:26:28.197Z,66.10
2018-03-03T21:28:57.305Z,65.99
2018-03-03T21:31:26.626Z,65.81
2018-03-03T21:33:56.503Z,65.70
2018-03-03T21:36:26.213Z,65.71
2018-03-03T21:38:55.304Z,65.76
2018-03-03T21:41:24.994Z,65.92
2018-03-03T21:43:56.074Z,65.92
2018-03-03T21:46:25.343Z,65.87
2018-03-03T21:48:54.480Z,66.10
2018-03-03T21:51:23.615Z,66.02
2018-03-03T21:53:52.708Z,66.10
2018-03-03T21:56:22.025Z,66.34
2018-03-03T21:58:51.878Z,66.28
2018-03-03T22:01:21.622Z,66.50
2018-03-03T22:03:52.142Z,66.33
2018-03-03T22:06:21.285Z,66.16
2018-03-03T22:08:50.726Z,65.98
2018-03-03T22:11:19.818Z,65.93
2018-03-03T22:13:48.903Z,66.12
2018-03-03T22:16:18.088Z,66.14
2018-03-03T22:18:47.288Z,66.36
2018-03-03T22:21:16.370Z,66.41
2018-03-03T22:23:45.455Z,66.32
2018-03-03T22:26:15.371Z,66.51
2018-03-03T22:28:44.474Z,66.38
2018-03-03T22:31:13.565Z,66.23
2018-03-03T22:33:42.649Z,66.43
2018-03-03T22:36:11.829Z,66.48
2018-03-03T22:38:40.920Z,66.54
2018-03-03T22:41:10.907Z,66.39
2018-03-03T22:43:40.612Z,66.60
2018-03-03T22:46:10.206Z,66.65
2018-03-03T22:48:40.474Z,66.75
2018-03-03T22:51:10.566Z,66.33
2018-03-03T22:53:39.785Z,66.28
2018-03-03T22:56:09.028Z,66.29
2018-03-03T22:58:38.772Z,66.27
2018-03-03T23:01:08.249Z,66.49
2018-03-03T23:03:38.293Z,66.41
2018-03-03T23:06:07.463Z,66.39
2018-03-03T23:08:36.567Z,66.45
2018-03-03T23:11:06.156Z,66.55
2018-03-03T23:13:35.257Z,66.48
2018-03-03T23:16:04.372Z,66.46
2018-03-03T23:18:33.975Z,66.70
2018-03-03T23:21:03.188Z,66.21
2018-03-03T23:23:32.285Z,66.38
2018-03-03T23:26:02.030Z,66.22
2018-03-03T23:28:31.264Z,66.42
2018-03-03T23:31:00.664Z,66.68
2018-03-03T23:33:30.323Z,66.57
2018-03-03T23:35:59.502Z,66.81
2018-03-03T23:38:29.008Z,66.74
2018-03-03T23:40:59.081Z,66.84
2018-03-03T23:43:28.486Z,66.92
2018-03-03T23:45:57.879Z,66.96
2018-03-03T23:48:27.221Z,66.89
2018-03-03T23:50:56.963Z,66.83
2018-03-03T23:53:26.227Z,67.21
2018-03-03T23:55:55.881Z,67.28
2018-03-03T23:58:24.998Z,67.57
